createdAt,value
2023-03-06T00:00:27.248Z,3.25
2023-03-06T00:05:21.009Z,3.53
2023-03-06T00:10:26.830Z,3.05
2023-03-06T00:15:21.788Z,3.88
2023-03-06T00:20:15.512Z,3.25
2023-03-06T00:25:13.622Z,2.90
2023-03-06T00:30:06.806Z,3.50
2023-03-06T00:35:00.893Z,2.97
2023-03-06T00:39:55.459Z,2.95
2023-03-06T00:44:48.106Z,2.92
2023-03-06T00:49:42.029Z,2.92
2023-03-06T00:54:34.723Z,3.40
2023-03-06T00:59:28.318Z,2.90
2023-03-06T01:04:26.404Z,2.67
2023-03-06T01:09:18.994Z,2.88
2023-03-06T01:14:12.154Z,2.72
2023-03-06T01:19:05.569Z,3.17
2023-03-06T01:23:58.533Z,2.97
2023-03-06T01:28:51.462Z,3.15
2023-03-06T01:33:43.448Z,3.22
2023-03-06T01:38:37.006Z,2.80
2023-03-06T01:43:32.977Z,3.22
2023-03-06T01:48:26.083Z,3.10
2023-03-06T01:53:20.051Z,2.85
2023-03-06T01:58:18.492Z,2.97
2023-03-06T02:03:17.992Z,2.75
2023-03-06T02:08:12.785Z,2.78
2023-03-06T02:13:07.056Z,2.88
2023-03-06T02:18:02.128Z,2.65
2023-03-06T02:23:08.390Z,2.50
2023-03-06T02:28:01.552Z,2.45
2023-03-06T02:32:55.306Z,2.58
2023-03-06T02:37:48.782Z,2.75
2023-03-06T02:42:53.756Z,2.75
2023-03-06T02:47:47.817Z,2.97
2023-03-06T02:52:40.597Z,2.67
2023-03-06T02:57:33.638Z,3.00
2023-03-06T03:02:26.658Z,2.90
2023-03-06T03:07:20.553Z,3.05
2023-03-06T03:12:13.575Z,2.85
2023-03-06T03:17:07.196Z,2.80
2023-03-06T03:21:59.287Z,2.83
2023-03-06T03:26:52.330Z,2.55
2023-03-06T03:31:47.248Z,2.80
2023-03-06T03:36:39.764Z,2.67
2023-03-06T03:41:34.618Z,2.88
2023-03-06T03:46:29.713Z,2.65
2023-03-06T03:51:23.308Z,2.50
2023-03-06T03:56:19.033Z,2.38
2023-03-06T04:01:21.330Z,2.63
2023-03-06T04:06:15.099Z,2.53
2023-03-06T04:11:08.555Z,2.80
2023-03-06T04:16:01.318Z,2.78
2023-03-06T04:20:57.346Z,2.50
2023-03-06T04:25:51.800Z,2.65
2023-03-06T04:30:44.653Z,2.22
2023-03-06T04:35:38.339Z,2.60
2023-03-06T04:40:37.443Z,2.63
2023-03-06T04:45:32.982Z,2.17
2023-03-06T04:50:26.729Z,2.60
2023-03-06T04:55:20.712Z,2.55
2023-03-06T05:00:19.600Z,2.53
2023-03-06T05:05:13.584Z,2.10
2023-03-06T05:10:06.693Z,2.05
2023-03-06T05:15:00.217Z,2.40
2023-03-06T05:19:57.152Z,2.45
2023-03-06T05:24:50.292Z,2.42
2023-03-06T05:29:43.164Z,2.40
2023-03-06T05:34:35.750Z,2.40
2023-03-06T05:39:29.767Z,2.38
2023-03-06T05:44:24.293Z,2.05
2023-03-06T05:49:17.431Z,2.20
2023-03-06T05:54:11.496Z,2.00
2023-03-06T05:59:04.967Z,2.20
2023-03-06T06:03:59.221Z,2.03
2023-03-06T06:08:52.596Z,1.98
2023-03-06T06:13:46.465Z,2.17
2023-03-06T06:18:41.311Z,2.17
2023-03-06T06:23:34.134Z,2.33
2023-03-06T06:28:28.820Z,2.17
2023-03-06T06:33:22.303Z,2.50
2023-03-06T06:38:15.812Z,2.42
2023-03-06T06:43:08.949Z,2.08
2023-03-06T06:48:02.817Z,2.92
2023-03-06T06:52:56.330Z,2.78
2023-03-06T06:57:49.674Z,2.45
2023-03-06T07:02:41.755Z,3.00
2023-03-06T07:07:35.893Z,2.35
2023-03-06T07:12:28.323Z,2.20
2023-03-06T07:17:21.779Z,2.42
2023-03-06T07:22:14.960Z,2.67
2023-03-06T07:27:08.757Z,2.13
2023-03-06T07:32:01.967Z,2.55
2023-03-06T07:36:54.936Z,7.03
2023-03-06T07:41:48.599Z,6.15
2023-03-06T07:46:42.113Z,6.60
2023-03-06T07:51:35.239Z,6.88
2023-03-06T07:56:27.748Z,4.53
2023-03-06T08:01:24.005Z,3.80
2023-03-06T08:06:19.890Z,3.60
2023-03-06T08:11:13.295Z,3.38
2023-03-06T08:16:09.229Z,3.38
2023-03-06T08:21:07.523Z,3.10
2023-03-06T08:26:01.309Z,3.42
2023-03-06T08:30:55.014Z,3.13
2023-03-06T08:35:47.869Z,2.80
2023-03-06T08:40:40.375Z,2.90
2023-03-06T08:45:33.289Z,2.90
2023-03-06T08:50:26.158Z,3.13
2023-03-06T08:55:19.276Z,2.88
2023-03-06T09:00:13.312Z,4.00
2023-03-06T09:05:08.025Z,4.78
2023-03-06T09:10:01.956Z,4.95
2023-03-06T09:14:54.478Z,4.45
2023-03-06T09:19:46.672Z,3.70
2023-03-06T09:24:39.230Z,3.53
2023-03-06T09:29:32.294Z,3.60
2023-03-06T09:34:27.784Z,4.18
2023-03-06T09:39:20.942Z,3.50
2023-03-06T09:44:20.588Z,4.68
2023-03-06T09:49:23.499Z,3.70
2023-03-06T09:54:17.108Z,3.15
2023-03-06T09:59:21.067Z,3.30
2023-03-06T10:04:36.694Z,2.67
2023-03-06T10:10:00.600Z,3.40
2023-03-06T10:15:07.285Z,2.60
2023-03-06T10:20:00.666Z,2.58
2023-03-06T10:25:24.148Z,2.90
2023-03-06T10:30:35.376Z,3.10
2023-03-06T10:35:45.745Z,2.92
2023-03-06T10:40:49.796Z,2.83
2023-03-06T10:45:51.408Z,2.33
2023-03-06T10:50:45.356Z,2.60
2023-03-06T10:55:39.445Z,2.85
2023-03-06T11:00:38.095Z,3.42
2023-03-06T11:05:31.728Z,3.78
2023-03-06T11:10:25.550Z,3.60
2023-03-06T11:15:22.909Z,3.78
2023-03-06T11:20:48.504Z,3.40
2023-03-06T11:25:50.764Z,3.80
2023-03-06T11:30:48.934Z,3.08
2023-03-06T11:35:57.172Z,4.15
2023-03-06T11:41:02.543Z,3.40
2023-03-06T11:46:06.289Z,3.47
2023-03-06T11:51:20.367Z,3.47
2023-03-06T11:56:18.744Z,2.92
2023-03-06T12:01:26.527Z,3.03
2023-03-06T12:06:37.012Z,2.90
2023-03-06T12:11:39.494Z,2.92
2023-03-06T12:16:36.040Z,3.05
2023-03-06T12:21:31.101Z,3.20
2023-03-06T12:26:45.382Z,2.75
2023-03-06T12:32:22.342Z,3.50
2023-03-06T12:37:21.384Z,2.47
2023-03-06T12:42:26.781Z,2.95
2023-03-06T12:47:24.039Z,2.60
2023-03-06T12:52:30.519Z,3.22
2023-03-06T12:57:24.949Z,2.15
2023-03-06T13:02:55.916Z,3.10
2023-03-06T13:08:03.622Z,2.53
2023-03-06T13:13:34.223Z,3.33
2023-03-06T13:18:27.301Z,3.05
2023-03-06T13:23:36.146Z,3.78
2023-03-06T13:28:55.041Z,2.85
2023-03-06T13:33:47.019Z,3.83
2023-03-06T13:38:42.848Z,3.95
2023-03-06T13:43:44.428Z,3.35
2023-03-06T13:48:46.239Z,2.90
2023-03-06T13:53:59.459Z,3.35
2023-03-06T13:59:00.951Z,3.30
2023-03-06T14:04:12.729Z,3.00
2023-03-06T14:09:09.225Z,3.30
2023-03-06T14:14:02.775Z,2.83
2023-03-06T14:18:57.295Z,3.88
2023-03-06T14:24:05.190Z,2.75
2023-03-06T14:29:03.014Z,3.28
2023-03-06T14:33:59.963Z,3.08
2023-03-06T14:38:58.986Z,2.80
2023-03-06T14:43:52.414Z,3.10
2023-03-06T14:48:46.874Z,2.67
2023-03-06T14:53:41.095Z,2.65
2023-03-06T14:58:53.053Z,2.50
2023-03-06T15:03:55.573Z,2.35
2023-03-06T15:08:56.598Z,2.55
2023-03-06T15:14:03.984Z,2.55
2023-03-06T15:19:02.768Z,2.42
2023-03-06T15:23:57.345Z,2.20
2023-03-06T15:29:07.030Z,2.63
2023-03-06T15:34:06.449Z,2.40
2023-03-06T15:39:01.430Z,2.47
2023-03-06T15:43:55.719Z,2.22
2023-03-06T15:49:03.147Z,2.40
2023-03-06T15:54:09.848Z,2.47
2023-03-06T15:59:11.138Z,2.85
2023-03-06T16:04:04.264Z,1.88
2023-03-06T16:08:57.223Z,2.40
2023-03-06T16:13:50.571Z,1.90
2023-03-06T16:18:43.944Z,1.90
2023-03-06T16:23:38.874Z,2.33
2023-03-06T16:28:33.702Z,2.17
2023-03-06T16:33:26.757Z,1.70
2023-03-06T16:38:20.180Z,2.30
2023-03-06T16:43:18.761Z,2.08
2023-03-06T16:48:16.075Z,2.55
2023-03-06T16:53:09.069Z,2.65
2023-03-06T16:58:01.464Z,2.60
2023-03-06T17:02:54.625Z,2.58
2023-03-06T17:07:47.594Z,1.80
2023-03-06T17:12:40.237Z,2.28
2023-03-06T17:17:33.749Z,2.60
2023-03-06T17:22:27.687Z,2.63
2023-03-06T17:27:23.518Z,2.05
2023-03-06T17:32:17.325Z,2.22
2023-03-06T17:37:10.706Z,2.47
2023-03-06T17:42:04.083Z,2.00
2023-03-06T17:46:56.948Z,6.40
2023-03-06T17:51:50.283Z,3.15
2023-03-06T17:56:43.575Z,2.00
2023-03-06T18:01:35.867Z,2.40
2023-03-06T18:06:30.695Z,2.00
2023-03-06T18:11:24.044Z,2.20
2023-03-06T18:16:20.755Z,2.90
2023-03-06T18:21:15.274Z,2.10
2023-03-06T18:26:12.086Z,2.00
2023-03-06T18:31:09.258Z,2.42
2023-03-06T18:36:06.640Z,2.53
2023-03-06T18:41:00.046Z,2.08
2023-03-06T18:45:57.441Z,2.13
2023-03-06T18:50:51.069Z,1.90
2023-03-06T18:55:53.038Z,1.70
2023-03-06T19:00:45.981Z,2.10
2023-03-06T19:05:42.957Z,2.35
2023-03-06T19:10:38.319Z,2.10
2023-03-06T19:15:31.253Z,2.10
2023-03-06T19:20:25.272Z,1.92
2023-03-06T19:25:18.402Z,2.00
2023-03-06T19:30:15.094Z,1.65
2023-03-06T19:35:11.349Z,1.88
2023-03-06T19:40:05.908Z,1.85
2023-03-06T19:44:59.209Z,1.55
2023-03-06T19:49:53.423Z,1.83
2023-03-06T19:54:49.302Z,2.63
2023-03-06T19:59:44.726Z,2.22
2023-03-06T20:04:38.059Z,3.05
2023-03-06T20:09:32.867Z,2.13
2023-03-06T20:14:25.164Z,2.75
2023-03-06T20:19:18.872Z,2.50
2023-03-06T20:24:17.980Z,2.35
2023-03-06T20:29:10.653Z,3.28
2023-03-06T20:34:04.721Z,3.05
2023-03-06T20:39:00.127Z,3.03
2023-03-06T20:43:54.178Z,2.88
2023-03-06T20:48:49.834Z,3.30
2023-03-06T20:53:44.022Z,2.78
2023-03-06T20:58:38.141Z,2.67
2023-03-06T21:03:31.881Z,3.38
2023-03-06T21:08:24.746Z,2.60
2023-03-06T21:13:19.414Z,2.95
2023-03-06T21:18:14.000Z,3.08
2023-03-06T21:23:07.228Z,3.03
2023-03-06T21:28:00.942Z,3.13
2023-03-06T21:32:53.123Z,2.80
2023-03-06T21:37:47.413Z,3.88
2023-03-06T21:42:42.213Z,3.22
2023-03-06T21:47:39.070Z,3.17
2023-03-06T21:52:33.862Z,2.92
2023-03-06T21:57:26.301Z,3.08
2023-03-06T22:02:20.871Z,4.18
2023-03-06T22:07:14.198Z,2.53
2023-03-06T22:12:07.590Z,2.75
2023-03-06T22:17:01.056Z,2.80
2023-03-06T22:21:54.266Z,2.90
2023-03-06T22:26:49.755Z,2.75
2023-03-06T22:31:43.543Z,2.67
2023-03-06T22:36:37.319Z,2.90
2023-03-06T22:41:30.653Z,2.83
2023-03-06T22:46:23.664Z,3.38
2023-03-06T22:51:19.091Z,2.95
2023-03-06T22:56:13.722Z,2.35
2023-03-06T23:01:15.627Z,2.67
2023-03-06T23:06:17.169Z,3.10
2023-03-06T23:11:15.704Z,2.78
2023-03-06T23:16:27.000Z,2.75
2023-03-06T23:21:39.269Z,2.83
2023-03-06T23:26:51.402Z,2.78
2023-03-06T23:31:45.494Z,3.00
2023-03-06T23:36:38.822Z,2.50
2023-03-06T23:41:32.269Z,2.60
2023-03-06T23:46:25.844Z,2.67
2023-03-06T23:51:21.433Z,2.35
2023-03-06T23:56:15.349Z,2.33
